Time;durP1;ratioP1;P1;durP2;ratioP2;P2;SDS_P1;SDS_P2;PMS_P1;PMS_P2;Temp;Humidity;BMP_temperature;BMP_pressure;BME280_temperature;BME280_humidity;BME280_pressure;Samples;Min_cycle;Max_cycle;Signal;HPM_P1;HPM_P2
2023/07/31 00:00:13;;;;;;;3.30;1.33;;;16.20;99.90;;;;;;5112389;28;20118;-70
2023/07/31 00:02:38;;;;;;;3.78;1.30;;;16.20;99.90;;;;;;5111528;28;20106;-70
2023/07/31 00:05:04;;;;;;;4.60;1.42;;;16.20;99.90;;;;;;5112297;28;20507;-70
2023/07/31 00:07:31;;;;;;;6.78;2.00;;;16.10;99.90;;;;;;5093326;28;20043;-70
2023/07/31 00:09:57;;;;;;;3.67;1.55;;;16.10;99.90;;;;;;5112322;28;20028;-70
2023/07/31 00:12:23;;;;;;;5.65;1.40;;;16.10;99.90;;;;;;5111817;28;20020;-69
2023/07/31 00:14:49;;;;;;;3.55;1.60;;;16.00;99.90;;;;;;5112126;28;20138;-70
2023/07/31 00:17:16;;;;;;;4.18;1.30;;;16.10;99.90;;;;;;5112211;28;20036;-70
2023/07/31 00:19:42;;;;;;;6.20;1.63;;;16.10;99.90;;;;;;5111351;28;20055;-70
2023/07/31 00:22:07;;;;;;;3.15;1.67;;;16.10;99.90;;;;;;5115266;28;20082;-70
2023/07/31 00:24:33;;;;;;;4.03;1.48;;;16.10;99.90;;;;;;5115428;28;20103;-70
2023/07/31 00:26:58;;;;;;;3.40;1.40;;;16.00;99.90;;;;;;5123359;27;20042;-70
2023/07/31 00:29:24;;;;;;;3.38;1.40;;;16.00;99.90;;;;;;5136244;27;20023;-69
2023/07/31 00:31:49;;;;;;;4.03;1.45;;;16.00;99.90;;;;;;5136021;27;20375;-70
2023/07/31 00:34:15;;;;;;;3.40;1.42;;;16.00;99.90;;;;;;5136498;27;20023;-70
2023/07/31 00:36:41;;;;;;;4.43;1.50;;;16.00;99.90;;;;;;5135869;27;20024;-70
2023/07/31 00:39:06;;;;;;;5.63;1.88;;;16.00;99.90;;;;;;5136731;27;20349;-70
2023/07/31 00:41:32;;;;;;;6.00;1.60;;;15.90;99.90;;;;;;5135407;27;20079;-69
2023/07/31 00:43:57;;;;;;;5.28;1.65;;;16.00;99.90;;;;;;5136559;27;20023;-70
2023/07/31 00:46:23;;;;;;;3.97;1.80;;;16.00;99.90;;;;;;5136340;27;20026;-69
2023/07/31 00:48:49;;;;;;;3.88;1.50;;;16.00;99.90;;;;;;5135344;27;20413;-70
2023/07/31 00:51:15;;;;;;;6.43;1.83;;;16.00;99.90;;;;;;5117927;27;20031;-71
2023/07/31 00:53:42;;;;;;;4.63;1.40;;;15.90;99.90;;;;;;5135479;27;20084;-70
2023/07/31 00:56:08;;;;;;;3.13;1.65;;;15.90;99.90;;;;;;5136688;27;20023;-71
2023/07/31 00:58:33;;;;;;;3.53;1.63;;;15.90;99.90;;;;;;5135556;27;20501;-70
2023/07/31 01:00:59;;;;;;;3.58;1.40;;;15.90;99.90;;;;;;5136386;27;20027;-70
2023/07/31 01:03:25;;;;;;;2.40;1.60;;;15.80;99.90;;;;;;5135467;27;20379;-70
2023/07/31 01:06:15;;;;;;;3.47;1.50;;;15.90;99.90;;;;;;5135332;27;20023;-70
2023/07/31 01:08:50;;;;;;;4.07;2.00;;;15.80;99.90;;;;;;5135119;27;20023;-70
2023/07/31 01:11:25;;;;;;;5.88;1.67;;;15.80;99.90;;;;;;5135520;27;20030;-70
2023/07/31 01:13:51;;;;;;;4.80;1.52;;;15.60;99.90;;;;;;5135357;27;20027;-70
2023/07/31 01:16:17;;;;;;;3.72;1.58;;;15.60;99.90;;;;;;5135828;27;20030;-70
2023/07/31 01:18:42;;;;;;;2.63;1.67;;;15.50;99.90;;;;;;5134825;27;20353;-70
2023/07/31 01:21:28;;;;;;;3.78;1.85;;;15.40;99.90;;;;;;5134962;27;20551;-70
2023/07/31 01:24:28;;;;;;;4.95;1.50;;;15.40;99.90;;;;;;5135193;27;20038;-70
2023/07/31 01:27:20;;;;;;;5.43;1.60;;;15.30;99.90;;;;;;5128238;27;20080;-70
2023/07/31 01:30:10;;;;;;;2.70;1.30;;;15.20;99.90;;;;;;5114387;28;20301;-71
2023/07/31 01:32:38;;;;;;;7.70;2.70;;;15.20;99.90;;;;;;5113564;28;20418;-69
2023/07/31 01:35:04;;;;;;;4.25;1.80;;;15.10;99.90;;;;;;5114858;28;20035;-70
2023/07/31 01:37:30;;;;;;;4.63;1.85;;;15.20;99.90;;;;;;5113958;28;20034;-70
2023/07/31 01:39:56;;;;;;;5.38;1.70;;;15.20;99.90;;;;;;5114900;28;20024;-70
2023/07/31 01:42:21;;;;;;;4.68;1.50;;;15.30;99.90;;;;;;5114728;28;20072;-70
2023/07/31 01:44:47;;;;;;;3.85;1.70;;;15.30;99.90;;;;;;5114005;28;20102;-70
2023/07/31 01:47:12;;;;;;;3.38;1.45;;;15.40;99.90;;;;;;5114731;28;20491;-70
2023/07/31 01:49:38;;;;;;;9.48;2.17;;;15.40;99.90;;;;;;5114101;28;20059;-69
2023/07/31 01:52:04;;;;;;;8.05;1.83;;;15.40;99.90;;;;;;5114213;28;20027;-70
2023/07/31 01:54:29;;;;;;;5.28;1.92;;;15.40;99.90;;;;;;5113996;28;20034;-69
2023/07/31 01:56:55;;;;;;;5.22;1.77;;;15.50;99.90;;;;;;5114123;28;20110;-70
2023/07/31 01:59:21;;;;;;;4.78;1.30;;;15.50;99.90;;;;;;5114316;28;20384;-71
2023/07/31 02:01:46;;;;;;;4.90;1.92;;;15.50;99.90;;;;;;5113804;28;20031;-70
2023/07/31 02:04:12;;;;;;;5.28;1.83;;;15.50;99.90;;;;;;5114356;28;20024;-70
2023/07/31 02:06:39;;;;;;;2.50;1.58;;;15.60;99.90;;;;;;5113494;28;20035;-69
2023/07/31 02:09:05;;;;;;;4.15;1.33;;;15.60;99.90;;;;;;5114256;28;20032;-70
2023/07/31 02:11:30;;;;;;;4.75;1.40;;;15.60;99.90;;;;;;5113929;28;20024;-69
2023/07/31 02:13:56;;;;;;;5.82;1.83;;;15.60;99.90;;;;;;5114105;28;20028;-70
2023/07/31 02:16:21;;;;;;;4.05;1.73;;;15.60;99.90;;;;;;5114386;28;20479;-71
2023/07/31 02:18:47;;;;;;;4.53;1.55;;;15.60;99.90;;;;;;5114168;28;20085;-71
2023/07/31 02:21:12;;;;;;;3.45;1.55;;;15.60;99.90;;;;;;5117054;28;20123;-71
2023/07/31 02:23:38;;;;;;;5.07;1.50;;;15.60;99.90;;;;;;5115644;28;20021;-71
2023/07/31 02:26:03;;;;;;;3.70;1.52;;;15.80;99.90;;;;;;5117947;28;20154;-71
2023/07/31 02:28:30;;;;;;;4.22;1.65;;;15.80;99.90;;;;;;5139758;27;20027;-71
2023/07/31 02:30:55;;;;;;;6.53;1.70;;;15.80;99.90;;;;;;5138229;27;20024;-71
2023/07/31 02:33:21;;;;;;;2.78;1.40;;;15.90;99.90;;;;;;5139316;27;20447;-71
2023/07/31 02:35:46;;;;;;;3.97;1.27;;;15.90;99.90;;;;;;5138975;27;20030;-71
2023/07/31 02:38:12;;;;;;;4.20;1.85;;;15.90;99.90;;;;;;5137836;27;20100;-71
2023/07/31 02:40:40;;;;;;;6.90;1.40;;;15.90;99.90;;;;;;5139539;27;20031;-70
2023/07/31 02:43:05;;;;;;;3.45;1.70;;;15.90;99.90;;;;;;5137915;27;20066;-70
2023/07/31 02:45:31;;;;;;;2.17;1.73;;;15.90;99.90;;;;;;5138168;27;20027;-70
2023/07/31 02:47:56;;;;;;;7.72;1.98;;;15.90;99.90;;;;;;5137779;27;20405;-70
2023/07/31 02:50:22;;;;;;;4.15;1.73;;;15.90;99.90;;;;;;5137056;27;20034;-71
2023/07/31 02:52:47;;;;;;;2.08;1.30;;;15.90;99.90;;;;;;5135509;27;20020;-70
2023/07/31 02:55:13;;;;;;;3.80;1.45;;;15.90;99.90;;;;;;5134349;27;20115;-70
2023/07/31 02:57:39;;;;;;;5.18;1.83;;;15.90;99.90;;;;;;5132954;27;20026;-69
2023/07/31 03:00:06;;;;;;;4.88;1.60;;;15.80;99.90;;;;;;5133843;27;20062;-70
2023/07/31 03:02:32;;;;;;;2.92;1.55;;;15.80;99.90;;;;;;5115093;27;20379;-69
2023/07/31 03:04:57;;;;;;;3.38;1.85;;;15.70;99.90;;;;;;5132074;27;20019;-70
2023/07/31 03:07:23;;;;;;;3.70;1.67;;;15.70;99.90;;;;;;5133696;27;20446;-70
2023/07/31 03:09:48;;;;;;;3.08;1.75;;;15.60;99.90;;;;;;5132669;27;20087;-69
2023/07/31 03:12:14;;;;;;;3.00;1.42;;;15.60;99.90;;;;;;5133704;27;20476;-70
2023/07/31 03:14:40;;;;;;;3.88;1.80;;;15.50;99.90;;;;;;5132713;27;20062;-69
2023/07/31 03:17:06;;;;;;;4.10;1.50;;;15.50;99.90;;;;;;5133287;27;20054;-70
2023/07/31 03:19:32;;;;;;;5.63;2.13;;;15.40;99.90;;;;;;5133527;27;20478;-71
2023/07/31 03:21:58;;;;;;;2.90;1.50;;;15.50;99.90;;;;;;5131880;27;20054;-70
2023/07/31 03:24:24;;;;;;;2.85;1.50;;;15.50;99.90;;;;;;5114946;27;20083;-69
2023/07/31 03:26:50;;;;;;;2.70;1.80;;;15.50;99.90;;;;;;5126115;27;20418;-69
2023/07/31 03:29:15;;;;;;;2.95;1.42;;;15.50;99.90;;;;;;5112657;28;20447;-70
2023/07/31 03:31:41;;;;;;;4.35;1.95;;;15.50;99.90;;;;;;5111922;28;20058;-69
2023/07/31 03:34:06;;;;;;;5.00;1.90;;;15.40;99.90;;;;;;5112760;28;20057;-69
2023/07/31 03:36:32;;;;;;;4.45;1.67;;;15.50;99.90;;;;;;5112670;28;20059;-71
2023/07/31 03:38:58;;;;;;;4.57;1.70;;;15.40;99.90;;;;;;5111810;28;20445;-70
2023/07/31 03:41:23;;;;;;;4.38;1.50;;;15.40;99.90;;;;;;5112485;28;20023;-71
2023/07/31 03:43:55;;;;;;;3.35;1.40;;;15.40;99.90;;;;;;5111740;28;20504;-70
2023/07/31 03:46:21;;;;;;;4.00;1.52;;;15.30;99.90;;;;;;5112547;28;20039;-71
2023/07/31 03:48:47;;;;;;;1.83;1.52;;;15.30;99.90;;;;;;5111785;28;20102;-70
2023/07/31 03:51:13;;;;;;;5.10;2.30;;;15.20;99.90;;;;;;5121705;28;20047;-71
2023/07/31 03:53:38;;;;;;;5.05;1.80;;;15.20;99.90;;;;;;5126469;28;20027;-68
2023/07/31 03:56:04;;;;;;;7.32;1.80;;;15.10;99.90;;;;;;5135038;28;20051;-70
2023/07/31 03:58:30;;;;;;;2.92;1.60;;;15.10;99.90;;;;;;5142375;28;20039;-70
2023/07/31 04:00:55;;;;;;;2.78;1.52;;;15.20;99.90;;;;;;5139107;28;20091;-72
2023/07/31 04:03:21;;;;;;;5.63;1.83;;;15.30;99.90;;;;;;5129547;28;20081;-71
2023/07/31 04:05:47;;;;;;;3.75;1.70;;;15.30;99.90;;;;;;5121462;28;20023;-71
2023/07/31 04:08:12;;;;;;;7.60;1.92;;;15.50;99.90;;;;;;5122617;28;20031;-71
2023/07/31 04:10:38;;;;;;;5.55;1.80;;;15.60;99.90;;;;;;5119857;28;20020;-69
2023/07/31 04:13:03;;;;;;;6.53;1.48;;;15.70;99.90;;;;;;5119287;28;20028;-70
2023/07/31 04:15:29;;;;;;;5.32;1.58;;;15.80;99.90;;;;;;5119111;28;20036;-71
2023/07/31 04:17:55;;;;;;;3.08;1.38;;;15.90;99.90;;;;;;5117992;28;20028;-70
2023/07/31 04:20:20;;;;;;;7.10;1.92;;;16.10;99.90;;;;;;5119093;28;20028;-70
2023/07/31 04:22:46;;;;;;;4.95;2.05;;;16.20;99.90;;;;;;5117503;28;20506;-70
2023/07/31 04:25:11;;;;;;;3.28;1.85;;;16.30;99.90;;;;;;5119037;28;20362;-70
2023/07/31 04:27:37;;;;;;;7.07;1.65;;;16.30;99.90;;;;;;5131758;27;20027;-69
2023/07/31 04:30:03;;;;;;;4.53;1.50;;;16.40;99.90;;;;;;5138969;27;20038;-70
2023/07/31 04:32:29;;;;;;;5.70;2.05;;;16.40;99.90;;;;;;5139523;27;20034;-70
2023/07/31 04:34:55;;;;;;;4.15;1.63;;;16.40;99.90;;;;;;5138690;27;20027;-70
2023/07/31 04:37:20;;;;;;;3.53;1.65;;;16.50;99.90;;;;;;5139267;27;20026;-71
2023/07/31 04:39:46;;;;;;;3.22;1.67;;;16.50;99.90;;;;;;5138655;27;20378;-70
2023/07/31 04:42:12;;;;;;;7.35;2.58;;;16.60;99.90;;;;;;5121109;27;20507;-70
2023/07/31 04:44:37;;;;;;;3.63;1.55;;;16.60;99.90;;;;;;5139097;27;20034;-69
2023/07/31 04:47:03;;;;;;;3.95;1.42;;;16.70;99.90;;;;;;5138783;27;20034;-70
2023/07/31 04:49:29;;;;;;;3.17;1.38;;;16.80;99.90;;;;;;5139302;27;20079;-70
2023/07/31 04:51:54;;;;;;;9.07;2.30;;;16.90;99.90;;;;;;5138484;27;20031;-70
2023/07/31 04:54:20;;;;;;;6.22;2.00;;;17.00;99.90;;;;;;5139207;27;20028;-70
2023/07/31 04:56:45;;;;;;;3.22;1.60;;;17.00;99.90;;;;;;5138413;27;20031;-70
2023/07/31 04:59:11;;;;;;;4.05;1.73;;;17.10;99.90;;;;;;5139069;27;20479;-70
2023/07/31 05:01:36;;;;;;;6.95;1.73;;;17.20;99.90;;;;;;5139517;27;20049;-70
2023/07/31 05:04:02;;;;;;;3.83;1.95;;;17.20;99.90;;;;;;5138023;27;20031;-70
2023/07/31 05:06:28;;;;;;;5.32;1.70;;;17.20;99.90;;;;;;5136701;27;20029;-70
2023/07/31 05:08:53;;;;;;;7.15;1.80;;;17.20;99.90;;;;;;5135106;27;20027;-69
2023/07/31 05:11:19;;;;;;;6.68;1.85;;;17.20;99.90;;;;;;5135590;27;20019;-69
2023/07/31 05:13:44;;;;;;;4.35;1.83;;;17.20;99.90;;;;;;5135077;27;20027;-69
2023/07/31 05:16:10;;;;;;;4.88;1.92;;;17.20;99.90;;;;;;5135686;27;20027;-69
2023/07/31 05:18:35;;;;;;;4.20;1.90;;;17.20;99.90;;;;;;5135517;27;20080;-69
2023/07/31 05:21:01;;;;;;;3.65;1.67;;;17.10;99.90;;;;;;5134234;27;20084;-69
2023/07/31 05:23:27;;;;;;;5.47;1.70;;;17.10;99.90;;;;;;5135976;27;20046;-69
2023/07/31 05:25:53;;;;;;;5.90;1.92;;;17.10;99.90;;;;;;5134764;27;20459;-70
2023/07/31 05:28:18;;;;;;;4.00;1.85;;;17.10;99.90;;;;;;5116958;27;20405;-70
2023/07/31 05:30:44;;;;;;;2.13;1.48;;;17.10;99.90;;;;;;5114366;28;20027;-69
2023/07/31 05:33:09;;;;;;;4.35;1.65;;;17.10;99.90;;;;;;5114594;28;20031;-70
2023/07/31 05:35:35;;;;;;;4.32;1.83;;;17.10;99.90;;;;;;5114783;28;20023;-70
2023/07/31 05:38:01;;;;;;;5.15;2.63;;;17.10;99.90;;;;;;5113836;28;20102;-70
2023/07/31 05:40:26;;;;;;;5.05;2.00;;;17.10;99.90;;;;;;5114286;28;20038;-71
2023/07/31 05:42:52;;;;;;;11.68;2.22;;;17.20;99.90;;;;;;5113812;28;20051;-70
2023/07/31 05:45:18;;;;;;;6.30;2.17;;;17.30;99.90;;;;;;5114634;28;20032;-70
2023/07/31 05:47:43;;;;;;;6.22;2.00;;;17.40;99.90;;;;;;5114128;28;20030;-70
2023/07/31 05:50:09;;;;;;;4.47;1.65;;;17.60;99.90;;;;;;5114356;28;20024;-70
2023/07/31 05:52:34;;;;;;;4.53;1.42;;;17.70;99.90;;;;;;5114538;28;20031;-70
2023/07/31 05:55:01;;;;;;;3.72;1.77;;;17.90;99.90;;;;;;5113551;28;20032;-70
2023/07/31 05:57:26;;;;;;;3.13;1.85;;;18.00;99.90;;;;;;5114210;28;20031;-70
2023/07/31 05:59:53;;;;;;;4.07;1.63;;;18.10;99.90;;;;;;5113573;28;20515;-70
2023/07/31 06:02:19;;;;;;;4.82;2.05;;;18.20;99.90;;;;;;5114198;28;20110;-70
2023/07/31 06:04:44;;;;;;;4.28;1.48;;;18.30;99.90;;;;;;5113929;28;20472;-70
2023/07/31 06:07:10;;;;;;;4.93;1.85;;;18.40;99.90;;;;;;5113700;28;20027;-70
2023/07/31 06:09:36;;;;;;;4.85;1.60;;;18.50;99.90;;;;;;5114088;28;20099;-71
2023/07/31 06:12:02;;;;;;;4.35;1.60;;;18.60;99.90;;;;;;5113205;28;20077;-70
2023/07/31 06:14:27;;;;;;;5.05;1.63;;;18.60;99.90;;;;;;5114218;28;20483;-71
2023/07/31 06:16:53;;;;;;;2.45;1.42;;;18.70;99.90;;;;;;5113141;28;20150;-70
2023/07/31 06:19:20;;;;;;;5.38;1.70;;;18.70;99.90;;;;;;5113085;28;20031;-70
2023/07/31 06:21:45;;;;;;;4.65;1.38;;;18.80;99.90;;;;;;5112828;28;20098;-70
2023/07/31 06:24:12;;;;;;;9.25;1.85;;;19.00;99.90;;;;;;5113457;28;20031;-70
2023/07/31 06:26:37;;;;;;;5.63;1.83;;;19.10;99.90;;;;;;5118290;27;20023;-70
2023/07/31 06:29:03;;;;;;;5.63;1.90;;;19.10;99.90;;;;;;5133760;27;20349;-71
2023/07/31 06:31:28;;;;;;;4.43;1.85;;;19.20;99.90;;;;;;5134293;27;20027;-71
2023/07/31 06:33:54;;;;;;;8.27;1.60;;;19.40;99.90;;;;;;5133559;27;20027;-70
2023/07/31 06:36:20;;;;;;;5.85;2.45;;;19.60;99.90;;;;;;5134243;27;20026;-71
2023/07/31 06:38:45;;;;;;;6.78;1.92;;;19.80;99.90;;;;;;5133795;27;20039;-70
2023/07/31 06:41:11;;;;;;;6.72;1.85;;;19.90;99.90;;;;;;5133610;27;20019;-70
2023/07/31 06:43:37;;;;;;;2.78;1.65;;;20.00;99.90;;;;;;5134082;27;20019;-71
2023/07/31 06:46:06;;;;;;;3.97;1.67;;;20.10;99.90;;;;;;5133320;27;20463;-70
2023/07/31 06:48:33;;;;;;;6.57;2.00;;;20.10;99.90;;;;;;5133966;27;20399;-71
2023/07/31 06:50:59;;;;;;;6.95;1.75;;;20.10;99.90;;;;;;5133046;27;20034;-70
2023/07/31 06:53:24;;;;;;;3.78;1.80;;;20.10;99.90;;;;;;5134147;27;20031;-71
2023/07/31 06:55:51;;;;;;;4.72;1.85;;;20.20;99.90;;;;;;5133276;27;20027;-70
2023/07/31 06:58:17;;;;;;;4.50;2.22;;;20.20;99.90;;;;;;5133823;27;20064;-70
2023/07/31 07:00:43;;;;;;;5.72;1.73;;;20.40;99.90;;;;;;5133757;27;20059;-71
2023/07/31 07:03:09;;;;;;;7.03;2.38;;;20.50;99.90;;;;;;5132524;27;20011;-70
2023/07/31 07:05:34;;;;;;;6.28;2.42;;;20.70;99.90;;;;;;5134365;27;20033;-72
2023/07/31 07:08:00;;;;;;;8.20;2.08;;;20.80;99.90;;;;;;5133389;27;20031;-70
2023/07/31 07:10:25;;;;;;;6.57;2.33;;;20.90;99.90;;;;;;5133416;27;20054;-70
2023/07/31 07:12:51;;;;;;;4.10;1.70;;;20.80;99.90;;;;;;5132957;27;20030;-70
2023/07/31 07:15:17;;;;;;;5.50;1.80;;;20.90;99.90;;;;;;5133443;27;20027;-70
2023/07/31 07:17:42;;;;;;;6.18;2.42;;;20.90;99.90;;;;;;5133365;27;20031;-71
2023/07/31 07:20:09;;;;;;;5.22;2.10;;;20.90;99.90;;;;;;5132169;27;20029;-71
2023/07/31 07:22:34;;;;;;;4.20;2.00;;;20.90;99.90;;;;;;5132657;27;20531;-71
2023/07/31 07:25:00;;;;;;;5.38;1.95;;;21.00;99.90;;;;;;5132360;27;20031;-71
2023/07/31 07:27:26;;;;;;;4.32;2.00;;;21.20;99.90;;;;;;5121827;27;20038;-71
2023/07/31 07:29:54;;;;;;;8.52;2.38;;;21.40;99.90;;;;;;5111480;28;20029;-70
2023/07/31 07:32:20;;;;;;;7.88;2.17;;;21.50;99.90;;;;;;5112517;28;20111;-71
2023/07/31 07:34:47;;;;;;;6.95;2.50;;;21.60;99.90;;;;;;5112769;28;20023;-71
2023/07/31 07:37:13;;;;;;;6.95;2.33;;;21.70;99.90;;;;;;5112049;28;20116;-72
2023/07/31 07:39:39;;;;;;;9.05;2.40;;;21.70;99.90;;;;;;5112503;28;20063;-71
2023/07/31 07:42:04;;;;;;;6.10;2.10;;;21.60;99.90;;;;;;5111714;28;20379;-71
2023/07/31 07:44:30;;;;;;;8.23;2.67;;;21.50;99.90;;;;;;5112494;28;20028;-71
2023/07/31 07:46:55;;;;;;;8.18;2.42;;;21.50;99.90;;;;;;5111523;28;20038;-70
2023/07/31 07:49:22;;;;;;;8.02;2.60;;;21.50;99.90;;;;;;5112453;28;20461;-71
2023/07/31 07:51:49;;;;;;;7.15;1.98;;;21.60;99.90;;;;;;5112259;28;20036;-71
2023/07/31 07:54:16;;;;;;;8.40;2.50;;;21.60;99.90;;;;;;5111639;28;20027;-71
2023/07/31 07:56:42;;;;;;;7.65;2.42;;;21.60;99.80;;;;;;5112151;28;20092;-71
2023/07/31 07:59:07;;;;;;;6.30;2.67;;;21.50;99.90;;;;;;5093273;28;20035;-71
2023/07/31 08:01:33;;;;;;;7.10;2.40;;;21.60;99.90;;;;;;5112432;28;20032;-71
2023/07/31 08:03:59;;;;;;;5.35;2.00;;;21.70;99.80;;;;;;5111618;28;20098;-70
2023/07/31 08:06:24;;;;;;;5.03;2.10;;;21.70;99.50;;;;;;5112564;28;20034;-71
2023/07/31 08:08:50;;;;;;;7.18;2.55;;;21.80;99.60;;;;;;5112079;28;20354;-70
2023/07/31 08:11:16;;;;;;;4.60;2.25;;;21.90;99.40;;;;;;5111732;28;20028;-71
2023/07/31 08:13:41;;;;;;;4.95;2.30;;;22.00;99.00;;;;;;5112326;28;20072;-71
2023/07/31 08:16:07;;;;;;;5.70;2.15;;;22.00;98.80;;;;;;5111370;28;20059;-71
2023/07/31 08:18:32;;;;;;;9.70;2.40;;;22.00;99.00;;;;;;5112047;28;20027;-71
2023/07/31 08:20:58;;;;;;;4.95;2.45;;;21.90;99.00;;;;;;5110828;28;20027;-71
2023/07/31 08:23:25;;;;;;;8.55;2.83;;;21.80;99.00;;;;;;5111780;28;20071;-71
2023/07/31 08:25:51;;;;;;;4.97;2.80;;;21.80;99.30;;;;;;5112086;28;20066;-70
2023/07/31 08:28:17;;;;;;;7.53;2.25;;;21.80;99.20;;;;;;5129751;28;20356;-71
2023/07/31 08:30:42;;;;;;;5.35;2.45;;;21.90;98.70;;;;;;5132191;28;20043;-71
2023/07/31 08:33:08;;;;;;;5.47;2.30;;;22.10;98.80;;;;;;5131695;28;20023;-71
2023/07/31 08:35:33;;;;;;;4.55;2.40;;;22.30;98.70;;;;;;5132428;28;20031;-71
2023/07/31 08:37:59;;;;;;;15.38;2.97;;;22.30;98.50;;;;;;5131762;28;20110;-71
2023/07/31 08:40:25;;;;;;;13.38;2.92;;;22.50;98.50;;;;;;5132550;27;20062;-71
2023/07/31 08:42:54;;;;;;;6.82;2.60;;;22.50;98.20;;;;;;5135010;27;20452;-71
2023/07/31 08:45:20;;;;;;;5.63;2.13;;;22.60;97.70;;;;;;5136081;27;20516;-71
2023/07/31 08:47:50;;;;;;;5.32;2.20;;;22.70;97.60;;;;;;5136546;27;20035;-71
2023/07/31 08:50:18;;;;;;;5.00;2.20;;;22.70;97.30;;;;;;5135068;27;20039;-71
2023/07/31 08:52:45;;;;;;;5.95;2.75;;;22.90;97.50;;;;;;5136288;27;20035;-71
2023/07/31 08:55:11;;;;;;;6.35;2.38;;;22.90;97.30;;;;;;5135411;27;20471;-71
2023/07/31 08:57:38;;;;;;;6.05;2.10;;;23.00;96.90;;;;;;5135979;27;20023;-71
2023/07/31 09:00:05;;;;;;;7.03;2.20;;;23.00;97.10;;;;;;5135322;27;20114;-71
2023/07/31 09:02:48;;;;;;;7.43;2.53;;;23.10;97.10;;;;;;5136440;27;20409;-71
2023/07/31 09:05:15;;;;;;;6.68;2.53;;;23.20;96.70;;;;;;5134012;27;20695;-71
2023/07/31 09:07:46;;;;;;;7.05;2.70;;;23.40;96.40;;;;;;5136082;27;20079;-71
2023/07/31 09:10:11;;;;;;;6.38;2.38;;;23.50;96.30;;;;;;5135216;27;20020;-71
2023/07/31 09:12:38;;;;;;;6.43;2.30;;;23.70;95.90;;;;;;5135657;27;20034;-71
2023/07/31 09:15:04;;;;;;;10.05;2.70;;;23.70;95.80;;;;;;5135084;27;20084;-71
2023/07/31 09:17:36;;;;;;;4.22;2.55;;;23.70;95.60;;;;;;5135491;27;20035;-71
2023/07/31 09:20:18;;;;;;;7.88;2.83;;;23.90;95.80;;;;;;5134979;27;20034;-71
2023/07/31 09:22:44;;;;;;;7.43;2.75;;;24.10;95.30;;;;;;5135020;27;20047;-71
2023/07/31 09:25:23;;;;;;;5.07;2.20;;;24.30;95.50;;;;;;5134545;27;20038;-71
2023/07/31 09:27:52;;;;;;;4.68;2.42;;;24.40;94.90;;;;;;5120972;27;20486;-71
2023/07/31 09:30:18;;;;;;;7.20;2.55;;;24.40;95.10;;;;;;5114596;28;20674;-72
2023/07/31 09:32:49;;;;;;;9.50;2.65;;;24.40;94.70;;;;;;5114944;28;20118;-71
2023/07/31 09:35:32;;;;;;;5.70;2.50;;;24.50;94.60;;;;;;5114114;28;20051;-72
2023/07/31 09:38:12;;;;;;;5.97;2.55;;;24.60;94.80;;;;;;5114454;28;20032;-70
2023/07/31 09:40:40;;;;;;;8.00;2.63;;;24.40;94.60;;;;;;5114792;28;20027;-71
2023/07/31 09:43:07;;;;;;;8.10;2.75;;;24.10;94.60;;;;;;5113912;28;20028;-71
2023/07/31 09:45:38;;;;;;;6.43;2.85;;;23.90;95.00;;;;;;5114715;28;20081;-71
2023/07/31 09:48:18;;;;;;;4.75;2.50;;;23.70;95.00;;;;;;5114098;28;20032;-71
2023/07/31 09:50:46;;;;;;;8.27;2.70;;;23.60;95.10;;;;;;5114874;28;20030;-71
2023/07/31 09:53:11;;;;;;;7.10;2.95;;;23.60;95.30;;;;;;5113169;28;20031;-71
2023/07/31 09:55:38;;;;;;;9.43;2.92;;;23.60;95.20;;;;;;5114612;28;20073;-72
2023/07/31 09:58:06;;;;;;;5.70;2.60;;;23.60;95.10;;;;;;5113654;28;20028;-71
2023/07/31 10:00:32;;;;;;;5.72;2.80;;;23.70;95.20;;;;;;5114504;28;20038;-72
2023/07/31 10:03:04;;;;;;;5.00;2.50;;;24.00;95.00;;;;;;5114307;28;20027;-71
2023/07/31 10:05:39;;;;;;;4.55;2.63;;;24.20;94.90;;;;;;5114322;28;20469;-71
2023/07/31 10:08:07;;;;;;;6.15;2.60;;;24.40;94.30;;;;;;5113903;28;20055;-71
2023/07/31 10:10:37;;;;;;;5.10;2.30;;;24.20;94.40;;;;;;5114043;28;20023;-71
2023/07/31 10:13:05;;;;;;;7.57;2.97;;;24.10;94.10;;;;;;5113628;28;20401;-71
2023/07/31 10:15:31;;;;;;;6.43;3.08;;;24.10;94.10;;;;;;5114354;28;20032;-72
2023/07/31 10:17:59;;;;;;;5.03;2.53;;;24.40;93.80;;;;;;5114146;28;20035;-72
2023/07/31 10:20:26;;;;;;;6.30;2.92;;;24.50;93.60;;;;;;5113860;28;20559;-72
2023/07/31 10:22:54;;;;;;;10.27;2.92;;;24.70;93.50;;;;;;5113236;28;20054;-71
2023/07/31 10:25:21;;;;;;;8.63;2.65;;;24.90;93.30;;;;;;5113541;28;20023;-71
2023/07/31 10:27:48;;;;;;;4.68;2.45;;;25.10;92.60;;;;;;5127973;27;20539;-72
2023/07/31 10:30:20;;;;;;;4.90;2.63;;;25.10;92.40;;;;;;5133709;27;20023;-71
2023/07/31 10:32:48;;;;;;;8.38;2.63;;;25.20;92.50;;;;;;5116120;27;20137;-71
2023/07/31 10:35:15;;;;;;;7.88;2.97;;;25.30;92.10;;;;;;5133744;27;20483;-71
2023/07/31 10:37:43;;;;;;;5.63;2.40;;;25.20;92.70;;;;;;5134100;27;20056;-71
2023/07/31 10:40:28;;;;;;;6.43;2.58;;;25.30;92.10;;;;;;5133254;27;20532;-70
2023/07/31 10:42:57;;;;;;;5.00;2.58;;;25.30;91.80;;;;;;5134361;27;20034;-71
2023/07/31 10:45:38;;;;;;;4.50;2.53;;;25.00;92.10;;;;;;5133491;27;20023;-71
2023/07/31 10:48:15;;;;;;;4.97;2.83;;;25.10;92.30;;;;;;5133570;27;20152;-70
2023/07/31 10:50:55;;;;;;;6.60;2.90;;;25.30;91.90;;;;;;5134159;27;20056;-71
2023/07/31 10:53:30;;;;;;;6.15;2.88;;;25.40;92.00;;;;;;5132828;27;20042;-71
2023/07/31 10:56:00;;;;;;;5.50;2.60;;;25.40;91.70;;;;;;5133946;27;20027;-72
2023/07/31 10:58:26;;;;;;;5.30;2.20;;;25.30;91.60;;;;;;5133262;27;20035;-71
2023/07/31 11:00:57;;;;;;;5.55;2.80;;;25.40;91.40;;;;;;5134129;27;20456;-72
2023/07/31 11:03:26;;;;;;;4.57;2.58;;;25.50;91.50;;;;;;5133108;27;20104;-72
2023/07/31 11:05:58;;;;;;;5.60;2.78;;;25.60;91.20;;;;;;5133518;27;20019;-72
2023/07/31 11:08:27;;;;;;;6.65;2.95;;;;;;;;;;5133484;27;20046;-72
2023/07/31 11:11:02;;;;;;;6.15;3.08;;;;;;;;;;5143196;27;20039;-70
2023/07/31 11:13:32;;;;;;;6.22;2.88;;;;;;;;;;5151196;27;20030;-70
2023/07/31 11:15:58;;;;;;;5.63;2.72;;;;;;;;;;5151477;27;20022;-71
2023/07/31 11:18:26;;;;;;;4.05;2.30;;;;;;;;;;5151490;27;20027;-71
2023/07/31 11:20:52;;;;;;;7.88;3.08;;;;;;;;;;5145962;27;20047;-71
2023/07/31 11:23:18;;;;;;;4.05;2.63;;;;;;;;;;5128185;28;20418;-72
2023/07/31 11:25:45;;;;;;;7.40;2.90;;;;;;;;;;5114488;28;20073;-71
2023/07/31 11:28:12;;;;;;;5.93;2.45;;;;;;;;;;5129901;27;20023;-72
2023/07/31 11:30:38;;;;;;;4.55;2.85;;;;;;;;;;5133711;27;20031;-72
2023/07/31 11:33:05;;;;;;;5.88;2.97;;;;;;;;;;5133183;27;20072;-70
2023/07/31 11:35:32;;;;;;;6.50;2.42;;;;;;;;;;5133227;27;20032;-71
2023/07/31 11:37:58;;;;;;;6.75;2.85;;;;;;;;;;5133360;27;20023;-70
2023/07/31 11:40:30;;;;;;;6.07;2.78;;;;;;;;;;5132246;27;20597;-71
2023/07/31 11:42:57;;;;;;;9.05;2.90;;;;;;;;;;5133308;27;20068;-71
2023/07/31 11:45:25;;;;;;;9.43;2.78;;;;;;;;;;5132479;27;20161;-71
2023/07/31 11:47:51;;;;;;;6.30;2.97;;;;;;;;;;5133204;27;20023;-71
2023/07/31 11:50:17;;;;;;;5.97;2.78;;;;;;;;;;5133308;27;20019;-71
2023/07/31 11:52:45;;;;;;;7.43;2.90;;;;;;;;;;5116680;27;20364;-70
2023/07/31 11:55:11;;;;;;;7.18;3.13;;;;;;;;;;5132408;28;20020;-71
2023/07/31 11:57:40;;;;;;;6.95;2.92;;;;;;;;;;5133157;28;20046;-70
2023/07/31 12:00:07;;;;;;;3.72;2.75;;;;;;;;;;5132644;28;20015;-69
2023/07/31 12:02:33;;;;;;;6.88;2.80;;;;;;;;;;5133082;28;20023;-70
2023/07/31 12:04:59;;;;;;;5.32;2.83;;;;;;;;;;5133102;28;20062;-71
2023/07/31 12:07:25;;;;;;;4.93;2.90;;;;;;;;;;5131969;28;20272;-70
2023/07/31 12:09:52;;;;;;;6.38;3.08;;;;;;;;;;5132938;28;20030;-71
2023/07/31 12:12:21;;;;;;;4.18;2.50;;;;;;;;;;5132242;28;20030;-70
2023/07/31 12:14:48;;;;;;;6.03;2.70;;;;;;;;;;5133053;28;20027;-70
2023/07/31 12:17:15;;;;;;;9.13;3.08;;;;;;;;;;5135700;27;20076;-70
2023/07/31 12:19:41;;;;;;;7.72;2.90;;;;;;;;;;5121382;27;20028;-71
2023/07/31 12:22:14;;;;;;;7.57;3.00;;;;;;;;;;5115691;28;20048;-71
2023/07/31 12:24:44;;;;;;;8.73;2.88;;;;;;;;;;5117611;28;20020;-72
2023/07/31 12:27:14;;;;;;;6.88;2.60;;;;;;;;;;5124458;27;20531;-70
2023/07/31 12:29:40;;;;;;;;;;;;;;;;;;5137666;27;20023;-70
2023/07/31 12:32:25;;;;;;;5.35;2.42;;;;;;;;;;5138197;27;20363;-69
2023/07/31 12:34:51;;;;;;;6.35;2.83;;;;;;;;;;5137118;27;20027;-71
2023/07/31 12:37:17;;;;;;;6.50;2.72;;;;;;;;;;5136934;27;20114;-71
2023/07/31 12:39:43;;;;;;;7.55;2.67;;;;;;;;;;5136980;27;20066;-72
2023/07/31 12:42:09;;;;;;;5.00;2.80;;;;;;;;;;5136333;27;20135;-70
2023/07/31 12:44:35;;;;;;;4.75;2.75;;;;;;;;;;5136456;27;20027;-71
2023/07/31 12:47:01;;;;;;;8.38;2.78;;;;;;;;;;5136273;27;20027;-70
2023/07/31 12:49:27;;;;;;;6.10;3.00;;;;;;;;;;5135931;27;20051;-72
2023/07/31 12:51:53;;;;;;;6.32;3.17;;;;;;;;;;5137122;27;20023;-72
2023/07/31 12:54:19;;;;;;;5.00;2.75;;;;;;;;;;5135949;27;20023;-72
2023/07/31 12:56:45;;;;;;;6.57;3.30;;;;;;;;;;5136340;27;20057;-71
2023/07/31 12:59:11;;;;;;;6.05;2.65;;;;;;;;;;5135668;27;20020;-69
2023/07/31 13:01:37;;;;;;;4.57;2.63;;;;;;;;;;5136281;27;20072;-72